createdAt,value
2022-10-19T08:06:33.940Z,16.90
2022-10-19T08:09:00.963Z,17.20
2022-10-19T08:11:29.093Z,17.30
2022-10-19T08:13:55.857Z,17.30
2022-10-19T08:16:36.539Z,17.40
2022-10-19T08:19:04.794Z,17.50
2022-10-19T08:21:31.579Z,17.70
2022-10-19T08:23:58.411Z,17.90
2022-10-19T08:26:25.307Z,18.00
2022-10-19T08:28:52.067Z,18.00
2022-10-19T08:31:22.271Z,18.00
2022-10-19T08:33:49.722Z,17.90
2022-10-19T08:36:16.475Z,18.00
2022-10-19T08:38:44.841Z,18.10
2022-10-19T08:41:30.544Z,18.40
2022-10-19T08:44:21.648Z,18.50
2022-10-19T08:46:48.386Z,18.70
2022-10-19T08:49:19.997Z,18.80
2022-10-19T08:51:53.097Z,18.90
2022-10-19T08:54:19.880Z,19.10
2022-10-19T08:57:23.074Z,19.30
2022-10-19T08:59:59.779Z,19.50
2022-10-19T09:02:32.978Z,19.50
2022-10-19T09:05:02.853Z,19.40
2022-10-19T09:07:31.143Z,19.30
2022-10-19T09:10:10.773Z,19.40
2022-10-19T09:12:41.487Z,19.30
2022-10-19T09:15:12.283Z,19.20
2022-10-19T09:17:39.028Z,19.00
2022-10-19T09:20:16.972Z,18.80
2022-10-19T09:22:44.260Z,18.60
2022-10-19T09:25:18.375Z,18.70
2022-10-19T09:27:47.147Z,19.00
2022-10-19T09:30:17.406Z,19.10
2022-10-19T09:32:44.199Z,18.90
2022-10-19T09:35:36.086Z,19.00
2022-10-19T09:38:06.012Z,19.40
2022-10-19T09:40:34.145Z,19.50
2022-10-19T09:43:09.424Z,19.80
2022-10-19T09:45:42.571Z,19.70
2022-10-19T09:48:19.123Z,19.50
2022-10-19T09:50:50.445Z,19.30
2022-10-19T09:53:19.301Z,19.30
2022-10-19T09:58:15.751Z,19.20
2022-10-19T10:00:47.038Z,19.00
2022-10-19T10:03:35.397Z,18.50
2022-10-19T10:06:04.016Z,18.40
2022-10-19T10:08:33.836Z,18.50
2022-10-19T10:11:07.092Z,18.40
2022-10-19T10:13:41.254Z,18.00
2022-10-19T10:16:13.618Z,17.70
2022-10-19T10:18:51.386Z,17.60
2022-10-19T10:21:25.561Z,17.40
2022-10-19T10:24:11.599Z,17.40
2022-10-19T10:26:39.608Z,17.50
2022-10-19T10:29:23.304Z,17.60
2022-10-19T10:31:52.228Z,17.80
2022-10-19T10:34:37.607Z,17.90
2022-10-19T10:37:18.119Z,18.00
2022-10-19T10:39:44.943Z,18.10
2022-10-19T10:42:17.122Z,18.20
2022-10-19T10:44:51.954Z,18.10
2022-10-19T10:47:22.373Z,18.00
2022-10-19T10:49:57.842Z,18.10
2022-10-19T10:52:25.548Z,18.10
2022-10-19T10:55:00.280Z,18.20
2022-10-19T10:57:36.599Z,18.20
2022-10-19T11:00:03.323Z,18.40
2022-10-19T11:02:36.445Z,18.40
2022-10-19T11:05:07.360Z,18.30
2022-10-19T11:07:35.987Z,18.30
2022-10-19T11:10:11.394Z,18.20
2022-10-19T11:12:47.999Z,18.10
2022-10-19T11:15:20.929Z,18.10
2022-10-19T11:18:10.763Z,18.30
2022-10-19T11:20:40.528Z,18.40
2022-10-19T11:23:13.698Z,18.50
2022-10-19T11:25:49.420Z,18.50
2022-10-19T11:28:26.428Z,18.30
2022-10-19T11:30:56.900Z,18.30
2022-10-19T11:36:30.656Z,18.40
2022-10-19T11:39:15.707Z,18.30
2022-10-19T11:41:48.275Z,18.10
2022-10-19T11:44:27.161Z,17.90
2022-10-19T11:47:07.640Z,17.70
2022-10-19T11:49:37.474Z,17.80
2022-10-19T11:52:20.910Z,17.70
2022-10-19T11:54:47.606Z,17.60
2022-10-19T11:57:21.382Z,17.50
2022-10-19T11:59:57.581Z,17.50
2022-10-19T12:02:53.628Z,17.50
2022-10-19T12:05:36.911Z,17.70
2022-10-19T12:11:21.133Z,17.90
2022-10-19T12:13:53.482Z,18.00
2022-10-19T12:16:21.056Z,18.00
2022-10-19T12:22:02.607Z,18.00
2022-10-19T12:24:30.454Z,17.70
2022-10-19T12:26:57.806Z,17.70
2022-10-19T12:29:33.602Z,17.50
2022-10-19T12:32:01.985Z,17.40
2022-10-19T12:34:36.479Z,17.30
2022-10-19T12:37:08.686Z,17.40
2022-10-19T12:39:54.357Z,17.70
2022-10-19T12:42:40.047Z,17.90
2022-10-19T12:45:23.865Z,18.10
2022-10-19T12:48:08.897Z,18.30
2022-10-19T12:50:57.308Z,18.30
2022-10-19T12:53:28.481Z,18.40
2022-10-19T12:56:04.333Z,18.60
2022-10-19T12:58:34.426Z,18.70
2022-10-19T13:01:02.671Z,18.50
2022-10-19T13:03:41.387Z,18.40
2022-10-19T13:06:11.104Z,18.50
2022-10-19T13:08:47.355Z,18.70
2022-10-19T13:11:15.548Z,18.80
2022-10-19T13:13:54.542Z,18.90
2022-10-19T13:16:30.208Z,18.90
2022-10-19T13:19:00.136Z,19.00
2022-10-19T13:21:49.653Z,19.10
2022-10-19T13:24:25.673Z,19.00
2022-10-19T13:27:04.756Z,19.00
2022-10-19T13:29:34.285Z,19.10
2022-10-19T13:32:19.806Z,19.30
2022-10-19T13:34:47.165Z,19.40
2022-10-19T13:37:17.012Z,19.30
2022-10-19T13:39:44.231Z,19.20
2022-10-19T13:42:25.676Z,19.20
2022-10-19T13:44:53.261Z,19.20
2022-10-19T13:47:34.686Z,19.00
2022-10-19T13:50:17.025Z,19.00
2022-10-19T13:52:51.289Z,19.00
2022-10-19T13:55:36.631Z,19.00
2022-10-19T13:58:15.424Z,19.00
2022-10-19T14:00:51.004Z,19.00
2022-10-19T14:03:26.651Z,18.90
2022-10-19T14:05:57.677Z,18.90
2022-10-19T14:08:43.031Z,18.80
2022-10-19T14:11:14.360Z,18.80
2022-10-19T14:13:41.333Z,18.60
2022-10-19T14:16:17.077Z,18.50
2022-10-19T14:18:43.855Z,18.30
2022-10-19T14:21:10.600Z,18.10
2022-10-19T14:23:40.068Z,17.90
2022-10-19T14:26:11.252Z,17.70
2022-10-19T14:28:40.284Z,17.60
2022-10-19T14:31:11.191Z,17.60
2022-10-19T14:33:39.232Z,17.50
2022-10-19T14:36:14.771Z,17.40
2022-10-19T14:38:43.473Z,17.40
2022-10-19T14:41:29.093Z,17.20
2022-10-19T14:43:56.850Z,17.00
2022-10-19T14:46:28.873Z,16.80
2022-10-19T14:48:59.451Z,16.60
2022-10-19T14:51:29.616Z,16.40
2022-10-19T14:54:05.839Z,16.30
2022-10-19T14:56:42.291Z,16.20
2022-10-19T14:59:15.365Z,16.00
2022-10-19T15:01:48.744Z,15.90
2022-10-19T15:04:23.047Z,15.80
2022-10-19T15:06:50.002Z,15.70
2022-10-19T15:09:37.531Z,15.50
2022-10-19T15:12:15.986Z,15.40
2022-10-19T15:14:43.030Z,15.40
2022-10-19T15:17:27.115Z,15.30
2022-10-19T15:19:56.142Z,15.30
2022-10-19T15:22:32.520Z,15.30
2022-10-19T15:25:01.018Z,15.30
2022-10-19T15:27:35.495Z,15.30
2022-10-19T15:30:05.434Z,15.20
2022-10-19T15:32:37.374Z,15.20
2022-10-19T15:35:12.183Z,15.20
2022-10-19T15:37:41.942Z,15.10
2022-10-19T15:40:13.050Z,15.10
2022-10-19T15:42:45.535Z,15.00
2022-10-19T15:45:27.489Z,14.90
2022-10-19T15:48:12.767Z,14.80
2022-10-19T15:50:44.069Z,14.70
2022-10-19T15:53:11.110Z,14.60
2022-10-19T15:55:37.868Z,14.50
2022-10-19T15:58:04.619Z,14.50
2022-10-19T16:00:31.947Z,14.40
2022-10-19T16:02:58.769Z,14.30
2022-10-19T16:05:25.652Z,14.20
2022-10-19T16:07:52.437Z,14.10
2022-10-19T16:10:24.469Z,14.00
2022-10-19T16:12:51.281Z,13.90
2022-10-19T16:15:22.426Z,13.80
2022-10-19T16:17:53.992Z,13.70
2022-10-19T16:20:24.067Z,13.60
2022-10-19T16:22:51.159Z,13.50
2022-10-19T16:25:18.122Z,13.40
2022-10-19T16:27:44.837Z,13.30
2022-10-19T16:30:12.191Z,13.20
2022-10-19T16:32:40.073Z,13.10
2022-10-19T16:35:08.503Z,13.00
2022-10-19T16:37:35.442Z,12.90
2022-10-19T16:40:02.635Z,12.80
2022-10-19T16:42:30.563Z,12.80
2022-10-19T16:44:57.551Z,12.70
2022-10-19T16:47:24.396Z,12.60
2022-10-19T16:49:58.724Z,12.50
2022-10-19T16:52:29.156Z,12.50
2022-10-19T16:54:57.111Z,12.40
2022-10-19T16:57:24.073Z,12.40
2022-10-19T17:02:20.049Z,12.20
2022-10-19T17:04:46.783Z,12.20
2022-10-19T17:07:13.897Z,12.10
2022-10-19T17:09:42.210Z,12.10
2022-10-19T17:12:10.143Z,12.00
2022-10-19T17:14:38.798Z,12.00
2022-10-19T17:17:05.696Z,12.00
2022-10-19T17:19:32.721Z,11.90
2022-10-19T17:21:59.715Z,11.90
2022-10-19T17:24:26.593Z,11.90
2022-10-19T17:26:53.625Z,11.80
2022-10-19T17:29:21.079Z,11.80
2022-10-19T17:31:48.330Z,11.70
2022-10-19T17:34:15.400Z,11.70
2022-10-19T17:36:46.279Z,11.70
2022-10-19T17:39:16.549Z,11.60
2022-10-19T17:41:43.932Z,11.60
2022-10-19T19:03:03.419Z,10.20
2022-10-19T19:05:32.898Z,10.20
2022-10-19T19:07:59.679Z,10.10
2022-10-19T19:10:26.378Z,10.00
2022-10-19T19:12:53.075Z,10.00
2022-10-19T19:15:19.904Z,9.90
2022-10-19T19:17:46.599Z,9.90
2022-10-19T19:20:13.344Z,9.80
2022-10-19T19:22:40.077Z,9.80
2022-10-19T19:25:06.975Z,9.70
2022-10-19T19:27:33.726Z,9.70
2022-10-19T19:30:00.652Z,9.60
2022-10-19T19:32:27.659Z,9.60
2022-10-19T19:34:54.998Z,9.50
2022-10-19T19:37:21.830Z,9.50
2022-10-19T19:39:48.598Z,9.50
2022-10-19T19:42:16.635Z,9.40
2022-10-19T19:44:43.399Z,9.40
2022-10-19T19:47:10.326Z,9.40
2022-10-19T19:49:37.117Z,9.30
2022-10-19T19:52:04.090Z,9.30
2022-10-19T19:54:30.813Z,9.20
2022-10-19T19:56:57.707Z,9.20
2022-10-19T19:59:24.449Z,9.20
2022-10-19T20:01:51.205Z,9.20
2022-10-19T20:04:17.991Z,9.10
2022-10-19T20:06:44.706Z,9.10
2022-10-19T20:09:11.511Z,9.10
2022-10-19T20:11:42.099Z,9.00
2022-10-19T20:14:09.369Z,9.00
2022-10-19T20:16:36.992Z,9.00
2022-10-19T20:19:05.525Z,9.00
2022-10-19T20:21:33.647Z,9.00
2022-10-19T20:24:01.098Z,8.90
2022-10-19T20:26:28.498Z,8.90
2022-10-19T20:28:55.321Z,8.80
2022-10-19T20:31:22.707Z,8.80
2022-10-19T20:33:49.727Z,8.80
2022-10-19T20:36:17.981Z,8.80
2022-10-19T20:38:49.228Z,8.70
2022-10-19T20:41:16.578Z,8.70
2022-10-19T20:43:43.301Z,8.70
2022-10-19T20:46:17.908Z,8.60
2022-10-19T20:48:45.191Z,8.60
